createdAt,value
2018-07-06T01:18:01.412Z,0.1
2018-07-06T01:21:01.154Z,0.2
2018-07-06T01:22:01.083Z,0.3
2018-07-06T01:24:01.229Z,0.4
2018-07-06T01:25:01.090Z,0.5
2018-07-06T01:27:01.122Z,0.6
2018-07-06T01:28:01.056Z,0.7
2018-07-06T01:30:01.356Z,0.8
2018-07-06T01:31:01.097Z,0.9
2018-07-06T01:33:01.088Z,1.0
2018-07-06T01:34:01.091Z,1.1
2018-07-06T01:36:01.234Z,1.2
2018-07-06T01:37:01.094Z,1.3
2018-07-06T01:39:01.228Z,1.4
2018-07-06T01:40:01.095Z,1.5
2018-07-06T01:41:01.265Z,1.6
2018-07-06T01:42:01.093Z,1.7
2018-07-06T01:43:01.098Z,1.9
2018-07-06T01:44:01.094Z,2.0
2018-07-06T01:45:01.065Z,2.2
2018-07-06T01:46:01.237Z,2.4
2018-07-06T01:47:01.097Z,2.7
2018-07-06T01:48:01.101Z,2.9
2018-07-06T01:49:01.104Z,3.1
2018-07-06T01:50:01.093Z,3.4
2018-07-06T01:51:01.533Z,3.7
2018-07-06T01:52:01.070Z,4.1
2018-07-06T01:53:01.098Z,4.6
2018-07-06T01:54:01.098Z,5.1
2018-07-06T01:55:01.073Z,5.6
2018-07-06T01:56:01.253Z,6.1
2018-07-06T01:57:01.098Z,6.7
2018-07-06T01:58:01.098Z,7.5
2018-07-06T01:59:01.070Z,8.3
2018-07-06T02:00:01.072Z,9.1
2018-07-06T02:01:01.528Z,10.0
2018-07-06T02:02:01.107Z,11.0
2018-07-06T02:03:01.102Z,12.2
2018-07-06T02:04:01.103Z,13.5
2018-07-06T02:05:01.114Z,15.0
2018-07-06T02:07:01.225Z,16.9
2018-07-06T02:08:01.087Z,19.1
2018-07-06T02:09:01.062Z,21.4
2018-07-06T02:10:01.062Z,23.7
2018-07-06T02:11:01.089Z,26.1
2018-07-06T02:12:01.232Z,29.0
2018-07-06T02:13:01.089Z,32.3
2018-07-06T02:14:01.057Z,35.7
2018-07-06T02:15:01.058Z,39.2
2018-07-06T02:16:01.090Z,43.1
2018-07-06T02:17:01.234Z,47.5
2018-07-06T02:18:01.091Z,51.8
2018-07-06T02:19:01.090Z,56.5
2018-07-06T02:20:01.093Z,62.2
2018-07-06T02:21:01.094Z,69.1
2018-07-06T02:22:01.235Z,76.3
2018-07-06T02:23:01.091Z,83.7
2018-07-06T02:24:01.085Z,90.9
2018-07-06T02:25:01.058Z,99.3
2018-07-06T02:26:01.095Z,106.9
2018-07-06T02:27:01.234Z,113.3
2018-07-06T02:28:01.058Z,120.9
2018-07-06T02:29:01.100Z,129.4
2018-07-06T02:30:01.100Z,138.1
2018-07-06T02:31:01.095Z,151.2
2018-07-06T02:32:01.234Z,167.7
2018-07-06T02:33:01.093Z,186.6
2018-07-06T02:34:01.099Z,206.6
2018-07-06T02:35:01.099Z,226.7
2018-07-06T02:36:01.101Z,245.1
2018-07-06T02:37:01.247Z,258.2
2018-07-06T02:38:01.095Z,271.0
2018-07-06T02:39:01.109Z,285.3
2018-07-06T02:40:01.097Z,303.2
2018-07-06T02:41:01.089Z,320.9
2018-07-06T02:42:01.236Z,341.8
2018-07-06T02:43:01.106Z,371.0
2018-07-06T02:44:01.100Z,408.2
2018-07-06T02:45:01.112Z,446.3
2018-07-06T02:46:01.067Z,481.4
2018-07-06T02:47:01.248Z,512.0
2018-07-06T02:48:01.122Z,540.1
2018-07-06T02:49:01.101Z,568.1
2018-07-06T02:50:01.098Z,600.3
2018-07-06T02:51:01.101Z,639.1
2018-07-06T02:52:01.267Z,679.0
2018-07-06T02:53:01.102Z,723.8
2018-07-06T02:54:01.099Z,774.0
2018-07-06T02:55:01.070Z,822.7
2018-07-06T02:56:01.073Z,876.9
2018-07-06T02:57:01.336Z,933.9
2018-07-06T02:58:01.078Z,976.6
2018-07-06T02:59:01.107Z,1011.2
2018-07-06T03:00:01.112Z,1050.7
2018-07-06T03:01:01.103Z,1096.0
2018-07-06T03:03:01.232Z,1145.5
2018-07-06T03:04:01.093Z,1199.3
2018-07-06T03:05:01.060Z,1254.1
2018-07-06T03:06:01.063Z,1316.2
2018-07-06T03:07:01.121Z,1371.5
2018-07-06T03:08:01.226Z,1440.8
2018-07-06T03:09:01.057Z,1524.0
2018-07-06T03:10:01.062Z,1615.9
2018-07-06T03:11:01.093Z,1697.0
2018-07-06T03:12:01.124Z,1774.7
2018-07-06T03:13:01.227Z,1862.1
2018-07-06T03:14:01.059Z,1948.7
2018-07-06T03:15:01.074Z,2051.6
2018-07-06T03:16:01.096Z,2174.0
2018-07-06T03:17:01.132Z,2304.9
2018-07-06T03:18:01.240Z,2458.1
2018-07-06T03:19:01.063Z,2622.7
2018-07-06T03:20:01.114Z,2793.7
2018-07-06T03:21:01.065Z,2958.6
2018-07-06T03:22:01.130Z,3115.5
2018-07-06T03:23:01.228Z,3289.8
2018-07-06T03:24:01.064Z,3436.3
2018-07-06T03:25:01.064Z,3562.5
2018-07-06T03:26:01.068Z,3723.8
2018-07-06T03:27:01.132Z,3906.8
2018-07-06T03:28:01.295Z,4066.3
2018-07-06T03:29:01.063Z,4215.1
2018-07-06T03:30:01.065Z,4335.2
2018-07-06T03:31:01.093Z,4457.3
2018-07-06T03:32:01.125Z,4567.5
2018-07-06T03:33:01.244Z,4678.5
2018-07-06T03:34:01.068Z,4831.7
2018-07-06T03:35:01.066Z,4982.7
2018-07-06T03:36:01.067Z,5142.6
2018-07-06T03:37:01.162Z,5271.6
2018-07-06T03:38:01.206Z,5359.4
2018-07-06T03:39:01.100Z,5465.8
2018-07-06T03:40:01.097Z,5556.0
2018-07-06T03:41:01.101Z,5594.9
2018-07-06T03:42:01.133Z,5659.6
2018-07-06T03:43:01.237Z,5804.1
2018-07-06T03:44:01.104Z,6083.8
2018-07-06T03:45:01.070Z,6364.3
2018-07-06T03:46:01.082Z,6592.0
2018-07-06T03:47:01.140Z,6793.9
2018-07-06T03:49:01.360Z,6915.3
2018-07-06T03:50:01.082Z,7035.7
2018-07-06T03:51:01.058Z,7200.7
2018-07-06T03:52:01.086Z,7353.2
2018-07-06T03:53:01.099Z,7517.5
2018-07-06T03:54:01.251Z,7682.7
2018-07-06T03:55:01.146Z,7827.2
2018-07-06T03:56:01.061Z,8050.6
2018-07-06T03:57:01.088Z,8289.9
2018-07-06T03:58:01.092Z,8429.6
2018-07-06T03:59:01.206Z,8477.6
2018-07-06T04:00:01.061Z,8426.6
2018-07-06T04:01:01.098Z,8402.6
2018-07-06T04:02:01.091Z,8418.7
2018-07-06T04:03:01.065Z,8494.7
2018-07-06T04:04:01.237Z,8630.8
2018-07-06T04:05:01.086Z,8715.1
2018-07-06T04:06:01.099Z,8709.8
2018-07-06T04:07:01.069Z,8763.5
2018-07-06T04:08:01.101Z,8861.2
2018-07-06T04:09:01.269Z,9066.7
2018-07-06T04:10:01.098Z,9209.9
2018-07-06T04:11:01.061Z,9435.9
2018-07-06T04:12:01.091Z,9637.1
2018-07-06T04:13:01.096Z,9812.0
2018-07-06T04:14:01.238Z,10018.9
2018-07-06T04:15:01.122Z,10169.7
2018-07-06T04:16:01.128Z,10407.1
2018-07-06T04:17:01.066Z,10686.5
2018-07-06T04:18:01.071Z,10793.9
2018-07-06T04:19:01.265Z,10863.8
2018-07-06T04:20:01.067Z,10905.0
2018-07-06T04:21:01.096Z,11020.7
2018-07-06T04:22:01.069Z,11136.9
2018-07-06T04:23:01.072Z,11406.2
2018-07-06T04:24:01.302Z,11774.1
2018-07-06T04:25:01.079Z,12075.7
2018-07-06T04:26:01.103Z,12437.5
2018-07-06T04:27:01.103Z,12658.9
2018-07-06T04:28:01.103Z,13027.1
2018-07-06T04:29:01.239Z,13558.1
2018-07-06T04:30:01.072Z,14110.7
2018-07-06T04:31:01.098Z,14733.9
2018-07-06T04:32:01.064Z,15331.2
2018-07-06T04:33:01.070Z,15860.3
2018-07-06T04:34:01.345Z,16484.7
2018-07-06T04:35:01.072Z,17365.2
2018-07-06T04:36:01.070Z,18436.0
2018-07-06T04:37:01.110Z,19357.8
2018-07-06T04:38:01.098Z,20044.5
2018-07-06T04:40:01.238Z,21060.9
2018-07-06T04:41:01.062Z,22631.9
2018-07-06T04:42:01.056Z,24362.8
2018-07-06T04:43:01.057Z,26266.9
2018-07-06T04:44:01.059Z,27777.3
2018-07-06T04:45:01.205Z,29587.1
2018-07-06T04:46:01.093Z,31427.6
2018-07-06T04:47:01.068Z,32885.3
2018-07-06T04:48:01.096Z,34543.2
2018-07-06T04:49:01.089Z,36222.8
2018-07-06T04:50:01.238Z,37866.6
2018-07-06T04:51:01.182Z,39426.3
2018-07-06T04:52:01.061Z,40527.3
2018-07-06T04:53:01.061Z,42085.7
2018-07-06T04:54:01.066Z,43896.7
2018-07-06T04:55:01.269Z,45249.9
2018-07-06T04:56:01.095Z,46692.4
2018-07-06T04:57:01.066Z,47715.1
2018-07-06T04:58:01.122Z,48540.9
2018-07-06T04:59:01.094Z,49725.2
2018-07-06T05:00:01.235Z,50448.5
2018-07-06T05:01:01.065Z,51332.0
2018-07-06T05:02:01.090Z,52402.5
2018-07-06T05:03:01.127Z,52564.1
2018-07-06T05:04:01.067Z,53630.4
2018-07-06T05:05:01.237Z,55037.5
2018-07-06T05:06:01.120Z,55573.1
2018-07-06T05:07:01.070Z,56549.9
2018-07-06T05:08:01.069Z,56998.8
2018-07-06T05:09:01.068Z,57931.6
2018-07-06T05:10:01.280Z,58162.9
2018-07-06T05:11:01.079Z,58525.3
2018-07-06T05:12:01.100Z,58039.5
2018-07-06T05:13:01.095Z,57822.2
2018-07-06T05:14:01.101Z,58405.8
2018-07-06T05:15:01.243Z,57817.0
2018-07-06T05:16:01.097Z,57674.4
2018-07-06T05:18:01.056Z,57590.3
2018-07-06T05:19:01.082Z,58512.0
2018-07-06T05:20:01.223Z,58754.8
2018-07-06T05:21:01.125Z,58700.5
2018-07-06T05:22:01.053Z,59325.7
2018-07-06T05:23:01.061Z,59741.8
2018-07-06T05:24:01.093Z,60266.3
2018-07-06T05:25:01.239Z,60155.3
2018-07-06T05:26:01.122Z,60714.9
2018-07-06T05:27:01.063Z,60615.0
2018-07-06T05:28:01.106Z,61393.5
2018-07-06T05:29:01.085Z,62228.9
2018-07-06T05:30:01.235Z,62228.9
2018-07-06T05:31:01.125Z,63388.3
2018-07-06T05:32:01.065Z,63924.7
2018-07-06T05:33:01.058Z,64424.9
2018-07-06T05:34:01.065Z,64596.9
2018-07-06T05:35:01.229Z,64723.2
2018-07-06T05:36:01.059Z,64777.5
2018-07-06T05:37:01.117Z,64875.3
2018-07-06T05:38:01.090Z,64973.3
2018-07-06T05:39:01.061Z,65119.7
2018-07-06T05:40:01.232Z,65230.7
2018-07-06T05:41:01.099Z,65306.7
2018-07-06T05:42:01.126Z,65406.5
2018-07-06T05:43:01.070Z,65535.0
2018-07-06T05:45:01.250Z,65535.0
2018-07-06T05:49:01.095Z,65531.7
2018-07-06T05:50:01.264Z,65505.1
2018-07-06T05:51:01.104Z,65500.8
2018-07-06T05:54:01.064Z,64429.7
2018-07-06T05:55:01.265Z,63026.1
2018-07-06T06:00:01.239Z,63026.1
2018-07-06T06:04:01.123Z,63029.3
2018-07-06T06:05:01.248Z,63055.9
2018-07-06T06:06:01.064Z,63060.3
2018-07-06T06:09:01.100Z,64131.4
2018-07-06T06:10:01.303Z,65535.0
2018-07-06T06:15:01.256Z,65535.0
2018-07-06T06:30:01.061Z,65535.0
2018-07-06T06:45:01.113Z,65535.0
2018-07-06T07:00:01.376Z,65535.0
2018-07-06T07:15:01.100Z,65535.0
2018-07-06T07:30:01.169Z,65535.0
2018-07-06T07:45:01.071Z,65535.0
2018-07-06T08:00:01.102Z,65535.0
2018-07-06T08:15:01.093Z,65535.0
2018-07-06T08:30:01.063Z,65535.0
2018-07-06T08:45:01.175Z,65535.0
2018-07-06T09:00:01.055Z,65535.0
2018-07-06T09:15:01.088Z,65535.0
2018-07-06T09:30:01.100Z,65535.0
2018-07-06T09:45:01.092Z,65535.0
2018-07-06T10:00:01.365Z,65535.0
2018-07-06T10:15:01.250Z,65535.0
2018-07-06T10:30:01.360Z,65535.0
2018-07-06T10:45:01.092Z,65535.0
2018-07-06T11:00:01.371Z,65535.0
2018-07-06T11:15:01.224Z,65535.0
2018-07-06T11:30:01.082Z,65535.0
2018-07-06T11:45:01.176Z,65535.0
2018-07-06T12:00:01.092Z,65535.0
2018-07-06T12:15:01.102Z,65535.0
2018-07-06T12:31:01.056Z,65535.0
2018-07-06T12:45:01.269Z,65535.0
2018-07-06T13:00:01.307Z,65535.0
2018-07-06T13:15:01.372Z,65535.0
2018-07-06T13:30:01.428Z,65535.0
2018-07-06T13:45:01.061Z,65535.0
2018-07-06T14:00:01.304Z,65535.0
2018-07-06T14:15:01.081Z,65535.0
2018-07-06T14:30:01.091Z,65535.0
2018-07-06T14:45:01.424Z,65535.0
2018-07-06T15:00:01.301Z,65535.0
2018-07-06T15:15:01.300Z,65535.0
2018-07-06T15:30:01.096Z,65535.0
2018-07-06T15:45:01.063Z,65535.0
2018-07-06T16:00:01.091Z,65535.0
2018-07-06T16:15:01.361Z,65535.0
2018-07-06T16:25:01.091Z,65114.9
2018-07-06T16:26:01.090Z,64531.7
2018-07-06T16:27:01.296Z,63424.6
2018-07-06T16:28:01.104Z,62526.2
2018-07-06T16:29:01.129Z,61955.7
2018-07-06T16:30:01.102Z,61230.1
2018-07-06T16:31:01.065Z,60337.0
2018-07-06T16:32:01.230Z,59191.9
2018-07-06T16:33:01.091Z,58291.4
2018-07-06T16:34:01.125Z,57315.7
2018-07-06T16:35:01.060Z,57150.7
2018-07-06T16:36:01.059Z,56925.8
2018-07-06T16:38:01.099Z,55997.4
2018-07-06T16:39:01.127Z,54722.1
2018-07-06T16:40:01.091Z,53890.9
2018-07-06T16:41:01.100Z,54219.9
2018-07-06T16:42:01.204Z,54273.7
2018-07-06T16:43:01.091Z,54232.0
2018-07-06T16:44:01.199Z,54080.1
2018-07-06T16:45:01.065Z,54165.9
2018-07-06T16:46:01.092Z,54177.8
2018-07-06T16:47:01.234Z,54329.5
2018-07-06T16:48:01.063Z,54225.8
2018-07-06T16:50:01.143Z,54311.1
2018-07-06T16:51:01.079Z,53561.3
2018-07-06T16:52:01.216Z,52845.7
2018-07-06T16:53:01.074Z,51870.6
2018-07-06T16:54:01.111Z,51861.3
2018-07-06T16:55:01.075Z,52226.7
2018-07-06T16:56:01.054Z,52559.7
2018-07-06T16:57:01.281Z,51840.8
2018-07-06T16:58:01.050Z,51908.3
2018-07-06T16:59:01.075Z,51872.1
2018-07-06T17:00:01.043Z,51568.9
2018-07-06T17:01:01.111Z,51122.3
2018-07-06T17:02:01.243Z,50917.5
2018-07-06T17:03:01.048Z,50768.9
2018-07-06T17:04:01.051Z,50603.6
2018-07-06T17:05:01.108Z,50335.3
2018-07-06T17:06:01.058Z,50036.3
2018-07-06T17:07:01.220Z,49664.3
2018-07-06T17:08:01.088Z,49270.4
2018-07-06T17:09:01.082Z,48829.8
2018-07-06T17:10:01.081Z,48298.4
2018-07-06T17:11:01.052Z,47798.2
2018-07-06T17:12:01.247Z,47433.3
2018-07-06T17:13:01.081Z,47109.7
2018-07-06T17:14:01.050Z,46706.5
2018-07-06T17:15:01.081Z,46388.9
2018-07-06T17:16:01.113Z,46161.9
2018-07-06T17:17:01.220Z,45917.4
2018-07-06T17:18:01.061Z,45697.9
2018-07-06T17:19:01.084Z,45549.4
2018-07-06T17:20:01.080Z,45432.3
2018-07-06T17:21:01.154Z,45399.3
2018-07-06T17:22:01.389Z,45482.1
2018-07-06T17:23:01.086Z,45656.7
2018-07-06T17:24:01.084Z,45811.9
2018-07-06T17:25:01.091Z,46044.9
2018-07-06T17:26:01.081Z,46282.4
2018-07-06T17:27:01.220Z,46359.3
2018-07-06T17:28:01.053Z,46337.5
2018-07-06T17:29:01.083Z,46383.7
2018-07-06T17:30:01.083Z,46429.8
2018-07-06T17:31:01.054Z,46442.2
2018-07-06T17:32:01.226Z,46396.9
2018-07-06T17:33:01.091Z,46414.1
2018-07-06T17:34:01.051Z,46399.9
2018-07-06T17:35:01.059Z,46480.7
2018-07-06T17:36:01.085Z,46579.4
2018-07-06T17:37:01.223Z,46697.7
2018-07-06T17:38:01.129Z,46784.3
2018-07-06T17:39:01.054Z,46899.2
2018-07-06T17:40:01.089Z,47010.1
2018-07-06T17:41:01.094Z,47100.5
2018-07-06T17:42:01.226Z,47263.7
2018-07-06T17:43:01.066Z,47465.6
2018-07-06T17:44:01.085Z,47631.7
2018-07-06T17:45:01.059Z,47768.5
2018-07-06T17:46:01.089Z,47917.7
2018-07-06T17:47:01.227Z,48111.2
2018-07-06T17:48:01.096Z,48248.9
2018-07-06T17:50:01.198Z,48354.9
2018-07-06T17:51:01.071Z,48333.1
2018-07-06T17:52:01.209Z,48245.6
2018-07-06T17:53:01.041Z,48090.7
2018-07-06T17:54:01.042Z,47927.0
2018-07-06T17:55:01.079Z,47759.5
2018-07-06T17:56:01.040Z,47574.0
2018-07-06T17:57:01.246Z,47353.3
2018-07-06T17:58:01.078Z,47129.3
2018-07-06T17:59:01.077Z,46899.7
2018-07-06T18:00:01.043Z,46682.3
2018-07-06T18:01:01.072Z,46441.4
2018-07-06T18:02:01.229Z,46172.7
2018-07-06T18:03:01.080Z,45906.5
2018-07-06T18:04:01.044Z,45632.5
2018-07-06T18:05:01.054Z,45347.0
2018-07-06T18:06:01.074Z,45031.4
2018-07-06T18:07:01.212Z,44717.1
2018-07-06T18:08:01.076Z,44388.5
2018-07-06T18:09:01.051Z,44043.8
2018-07-06T18:10:01.094Z,43697.3
2018-07-06T18:11:01.075Z,43324.9
2018-07-06T18:12:01.231Z,42959.3
2018-07-06T18:13:01.117Z,42597.7
2018-07-06T18:14:01.077Z,42272.6
2018-07-06T18:15:01.085Z,41983.9
2018-07-06T18:16:01.094Z,41679.0
2018-07-06T18:17:01.219Z,41314.9
2018-07-06T18:18:01.080Z,40903.7
2018-07-06T18:19:01.082Z,40493.8
2018-07-06T18:20:01.079Z,40124.3
2018-07-06T18:21:01.048Z,39799.2
2018-07-06T18:22:01.222Z,39500.0
2018-07-06T18:23:01.156Z,39240.3
2018-07-06T18:24:01.077Z,38988.0
2018-07-06T18:25:01.083Z,38727.3
2018-07-06T18:26:01.082Z,38476.5
2018-07-06T18:27:01.293Z,38215.0
2018-07-06T18:28:01.111Z,37945.9
2018-07-06T18:29:01.087Z,37655.1
2018-07-06T18:30:01.050Z,37310.9
2018-07-06T18:31:01.081Z,36936.4
2018-07-06T18:32:01.224Z,36578.3
2018-07-06T18:33:01.121Z,36234.9
2018-07-06T18:34:01.086Z,35876.4
2018-07-06T18:35:01.086Z,35475.9
2018-07-06T18:36:01.087Z,35003.2
2018-07-06T18:37:01.232Z,34468.3
2018-07-06T18:38:01.050Z,33884.4
2018-07-06T18:39:01.106Z,33249.6
2018-07-06T18:40:01.085Z,32560.1
2018-07-06T18:41:01.086Z,31839.1
2018-07-06T18:42:01.234Z,31108.1
2018-07-06T18:43:01.089Z,30357.7
2018-07-06T18:44:01.083Z,29543.7
2018-07-06T18:45:01.094Z,28760.5
2018-07-06T18:46:01.084Z,28071.6
2018-07-06T18:47:01.298Z,27421.1
2018-07-06T18:48:01.084Z,26811.4
2018-07-06T18:49:01.103Z,26230.1
2018-07-06T18:50:01.086Z,25666.7
2018-07-06T18:51:01.086Z,25149.2
2018-07-06T18:52:01.230Z,24690.7
2018-07-06T18:53:01.089Z,24309.3
2018-07-06T18:54:01.120Z,24025.7
2018-07-06T18:56:01.088Z,23855.7
2018-07-06T18:57:01.207Z,23758.0
2018-07-06T18:58:01.075Z,23723.2
2018-07-06T18:59:01.081Z,23742.1
2018-07-06T19:00:01.048Z,23860.6
2018-07-06T19:01:01.111Z,24016.8
2018-07-06T19:02:01.232Z,24166.1
2018-07-06T19:03:01.078Z,24344.5
2018-07-06T19:04:01.089Z,24549.3
2018-07-06T19:05:01.077Z,24756.1
2018-07-06T19:06:01.094Z,24952.9
2018-07-06T19:07:01.226Z,25128.1
2018-07-06T19:08:01.082Z,25274.2
2018-07-06T19:09:01.091Z,25376.9
2018-07-06T19:10:01.085Z,25428.2
2018-07-06T19:11:01.079Z,25406.7
2018-07-06T19:12:01.223Z,25323.5
2018-07-06T19:13:01.083Z,25155.9
2018-07-06T19:14:01.058Z,24891.1
2018-07-06T19:15:01.081Z,24539.9
2018-07-06T19:16:01.086Z,24096.1
2018-07-06T19:17:01.221Z,23562.8
2018-07-06T19:18:01.083Z,22957.9
2018-07-06T19:19:01.056Z,22281.3
2018-07-06T19:20:01.084Z,21561.9
2018-07-06T19:21:01.055Z,20814.6
2018-07-06T19:22:01.249Z,20051.9
2018-07-06T19:23:01.088Z,19277.3
2018-07-06T19:24:01.093Z,18487.7
2018-07-06T19:25:01.054Z,17677.0
2018-07-06T19:26:01.060Z,16859.3
2018-07-06T19:27:01.227Z,16051.1
2018-07-06T19:28:01.089Z,15269.2
2018-07-06T19:29:01.096Z,14526.7
2018-07-06T19:30:01.092Z,13822.1
2018-07-06T19:31:01.097Z,13152.3
2018-07-06T19:32:01.215Z,12517.1
2018-07-06T19:33:01.096Z,11917.3
2018-07-06T19:34:01.094Z,11351.3
2018-07-06T19:35:01.093Z,10815.0
2018-07-06T19:37:01.259Z,10280.5
2018-07-06T19:38:01.048Z,9762.4
2018-07-06T19:39:01.052Z,9257.6
2018-07-06T19:40:01.050Z,8766.6
2018-07-06T19:41:01.082Z,8294.3
2018-07-06T19:42:01.223Z,7837.6
2018-07-06T19:43:01.091Z,7396.6
2018-07-06T19:44:01.084Z,6975.1
2018-07-06T19:45:01.086Z,6573.7
2018-07-06T19:46:01.087Z,6190.2
2018-07-06T19:47:01.287Z,5822.7
2018-07-06T19:48:01.081Z,5470.7
2018-07-06T19:49:01.055Z,5135.3
2018-07-06T19:50:01.055Z,4817.7
2018-07-06T19:51:01.064Z,4516.5
2018-07-06T19:52:01.227Z,4253.7
2018-07-06T19:53:01.065Z,4002.9
2018-07-06T19:54:01.086Z,3763.7
2018-07-06T19:55:01.086Z,3535.5
2018-07-06T19:56:01.093Z,3317.9
2018-07-06T19:57:01.301Z,3110.3
2018-07-06T19:58:01.060Z,2912.1
2018-07-06T19:59:01.057Z,2723.7
2018-07-06T20:00:01.089Z,2546.3
2018-07-06T20:01:01.093Z,2381.6
2018-07-06T20:02:01.234Z,2232.1
2018-07-06T20:03:01.063Z,2100.1
2018-07-06T20:04:01.116Z,1989.1
2018-07-06T20:05:01.064Z,1902.4
2018-07-06T20:06:01.064Z,1839.8
2018-07-06T20:07:01.234Z,1800.7
2018-07-06T20:08:01.157Z,1782.3
2018-07-06T20:09:01.061Z,1780.2
2018-07-06T20:10:01.060Z,1790.9
2018-07-06T20:11:01.110Z,1810.5
2018-07-06T20:12:01.230Z,1834.1
2018-07-06T20:13:01.099Z,1857.3
2018-07-06T20:14:01.092Z,1875.9
2018-07-06T20:15:01.061Z,1886.9
2018-07-06T20:16:01.066Z,1887.4
2018-07-06T20:17:01.298Z,1875.1
2018-07-06T20:18:01.128Z,1847.9
2018-07-06T20:19:01.092Z,1802.5
2018-07-06T20:20:01.104Z,1736.6
2018-07-06T20:21:01.099Z,1650.7
2018-07-06T20:22:01.232Z,1547.1
2018-07-06T20:23:01.065Z,1429.3
2018-07-06T20:24:01.095Z,1302.5
2018-07-06T20:25:01.093Z,1170.3
2018-07-06T20:26:01.099Z,1036.5
2018-07-06T20:27:01.232Z,905.8
2018-07-06T20:28:01.098Z,782.7
2018-07-06T20:29:01.146Z,670.6
2018-07-06T20:30:01.098Z,571.4
2018-07-06T20:31:01.120Z,485.5
2018-07-06T20:32:01.237Z,412.3
2018-07-06T20:33:01.102Z,350.7
2018-07-06T20:34:01.101Z,299.7
2018-07-06T20:35:01.103Z,257.7
2018-07-06T20:36:01.128Z,223.2
2018-07-06T20:37:01.281Z,194.5
2018-07-06T20:38:01.072Z,170.3
2018-07-06T20:39:01.105Z,149.4
2018-07-06T20:40:01.141Z,131.5
2018-07-06T20:41:01.097Z,116.1
2018-07-06T20:42:01.238Z,103.0
2018-07-06T20:43:01.104Z,91.9
2018-07-06T20:45:01.088Z,82.2
2018-07-06T20:46:01.086Z,73.7
2018-07-06T20:47:01.240Z,66.2
2018-07-06T20:48:01.096Z,59.4
2018-07-06T20:49:01.103Z,53.3
2018-07-06T20:50:01.096Z,47.9
2018-07-06T20:51:01.159Z,42.9
2018-07-06T20:52:01.226Z,38.5
2018-07-06T20:53:01.057Z,34.6
2018-07-06T20:54:01.173Z,31.0
2018-07-06T20:55:01.092Z,27.8
2018-07-06T20:56:01.086Z,24.9
2018-07-06T20:57:01.247Z,22.3
2018-07-06T20:58:01.084Z,20.0
2018-07-06T20:59:01.052Z,17.9
2018-07-06T21:00:01.064Z,16.1
2018-07-06T21:01:01.088Z,14.5
2018-07-06T21:02:01.225Z,13.1
2018-07-06T21:03:01.086Z,11.9
2018-07-06T21:04:01.087Z,10.7
2018-07-06T21:05:01.085Z,9.7
2018-07-06T21:06:01.081Z,8.7
2018-07-06T21:07:01.233Z,7.9
2018-07-06T21:08:01.128Z,7.1
2018-07-06T21:09:01.083Z,6.4
2018-07-06T21:10:01.147Z,5.8
2018-07-06T21:11:01.053Z,5.2
2018-07-06T21:12:01.224Z,4.7
2018-07-06T21:13:01.089Z,4.2
2018-07-06T21:14:01.089Z,3.8
2018-07-06T21:15:01.090Z,3.5
2018-07-06T21:16:01.064Z,3.1
2018-07-06T21:17:01.230Z,2.8
2018-07-06T21:18:01.092Z,2.5
2018-07-06T21:19:01.088Z,2.3
2018-07-06T21:20:01.094Z,2.1
2018-07-06T21:21:01.090Z,1.9
2018-07-06T21:22:01.243Z,1.7
2018-07-06T21:23:01.087Z,1.6
2018-07-06T21:24:01.069Z,1.5
2018-07-06T21:25:01.089Z,1.3
2018-07-06T21:27:01.236Z,1.2
2018-07-06T21:28:01.060Z,1.1
2018-07-06T21:30:01.120Z,0.9
2018-07-06T21:32:01.239Z,0.8
2018-07-06T21:33:01.058Z,0.7
2018-07-06T21:35:01.093Z,0.6
2018-07-06T21:36:01.176Z,0.5
2018-07-06T21:38:01.064Z,0.4
2018-07-06T21:39:01.058Z,0.3
2018-07-06T21:41:01.096Z,0.2
2018-07-06T21:42:01.240Z,0.1
